sensor_id;sensor_type;location;lat;lon;timestamp;P1;durP1;ratioP1;P2;durP2;ratioP2
635;SDS011;302;50.206;8.196;2024-01-11T00:02:06;32.50;;;18.00;;
635;SDS011;302;50.206;8.196;2024-01-11T00:04:31;33.73;;;22.80;;
635;SDS011;302;50.206;8.196;2024-01-11T00:06:57;33.37;;;23.60;;
635;SDS011;302;50.206;8.196;2024-01-11T00:09:22;33.13;;;23.70;;
635;SDS011;302;50.206;8.196;2024-01-11T00:11:48;32.40;;;22.88;;
635;SDS011;302;50.206;8.196;2024-01-11T00:14:14;33.20;;;24.20;;
635;SDS011;302;50.206;8.196;2024-01-11T00:16:39;32.30;;;23.27;;
635;SDS011;302;50.206;8.196;2024-01-11T00:19:04;26.83;;;15.63;;
635;SDS011;302;50.206;8.196;2024-01-11T00:21:29;30.27;;;13.90;;
635;SDS011;302;50.206;8.196;2024-01-11T00:23:54;27.40;;;12.37;;
635;SDS011;302;50.206;8.196;2024-01-11T00:26:19;34.87;;;23.67;;
635;SDS011;302;50.206;8.196;2024-01-11T00:28:45;36.17;;;23.73;;
635;SDS011;302;50.206;8.196;2024-01-11T00:31:10;30.50;;;16.10;;
635;SDS011;302;50.206;8.196;2024-01-11T00:33:35;21.13;;;12.67;;
635;SDS011;302;50.206;8.196;2024-01-11T00:36:00;25.52;;;15.15;;
635;SDS011;302;50.206;8.196;2024-01-11T00:38:26;29.00;;;16.93;;
635;SDS011;302;50.206;8.196;2024-01-11T00:40:51;34.27;;;23.87;;
635;SDS011;302;50.206;8.196;2024-01-11T00:43:16;31.08;;;22.85;;
635;SDS011;302;50.206;8.196;2024-01-11T00:45:41;35.30;;;23.67;;
635;SDS011;302;50.206;8.196;2024-01-11T00:48:06;31.70;;;17.77;;
635;SDS011;302;50.206;8.196;2024-01-11T00:50:31;31.27;;;24.00;;
635;SDS011;302;50.206;8.196;2024-01-11T00:52:57;35.90;;;24.42;;
635;SDS011;302;50.206;8.196;2024-01-11T00:55:22;32.17;;;22.97;;
635;SDS011;302;50.206;8.196;2024-01-11T00:57:47;34.60;;;23.00;;
635;SDS011;302;50.206;8.196;2024-01-11T01:00:12;31.43;;;22.37;;
635;SDS011;302;50.206;8.196;2024-01-11T01:02:39;29.77;;;23.02;;
635;SDS011;302;50.206;8.196;2024-01-11T01:05:04;36.27;;;25.00;;
635;SDS011;302;50.206;8.196;2024-01-11T01:07:29;34.30;;;23.60;;
635;SDS011;302;50.206;8.196;2024-01-11T01:09:54;31.40;;;22.57;;
635;SDS011;302;50.206;8.196;2024-01-11T01:12:20;34.40;;;23.67;;
635;SDS011;302;50.206;8.196;2024-01-11T01:14:45;35.80;;;23.80;;
635;SDS011;302;50.206;8.196;2024-01-11T01:17:10;33.03;;;24.23;;
635;SDS011;302;50.206;8.196;2024-01-11T01:19:35;33.17;;;17.85;;
635;SDS011;302;50.206;8.196;2024-01-11T01:22:01;34.38;;;24.65;;
635;SDS011;302;50.206;8.196;2024-01-11T01:24:26;33.40;;;23.93;;
635;SDS011;302;50.206;8.196;2024-01-11T01:26:51;33.50;;;22.90;;
635;SDS011;302;50.206;8.196;2024-01-11T01:29:16;36.75;;;25.55;;
635;SDS011;302;50.206;8.196;2024-01-11T01:31:42;30.45;;;23.30;;
635;SDS011;302;50.206;8.196;2024-01-11T01:34:07;34.40;;;23.23;;
635;SDS011;302;50.206;8.196;2024-01-11T01:36:32;31.53;;;17.50;;
635;SDS011;302;50.206;8.196;2024-01-11T01:38:57;36.90;;;24.90;;
635;SDS011;302;50.206;8.196;2024-01-11T01:41:22;36.53;;;24.33;;
635;SDS011;302;50.206;8.196;2024-01-11T01:43:47;29.03;;;16.20;;
635;SDS011;302;50.206;8.196;2024-01-11T01:46:13;35.17;;;24.57;;
635;SDS011;302;50.206;8.196;2024-01-11T01:48:42;37.78;;;24.83;;
635;SDS011;302;50.206;8.196;2024-01-11T01:51:08;34.87;;;24.17;;
635;SDS011;302;50.206;8.196;2024-01-11T01:53:33;35.33;;;24.90;;
635;SDS011;302;50.206;8.196;2024-01-11T01:55:58;31.40;;;23.77;;
635;SDS011;302;50.206;8.196;2024-01-11T01:58:24;31.93;;;24.23;;
635;SDS011;302;50.206;8.196;2024-01-11T02:00:49;40.20;;;26.17;;
635;SDS011;302;50.206;8.196;2024-01-11T02:03:15;40.38;;;25.63;;
635;SDS011;302;50.206;8.196;2024-01-11T02:05:41;34.07;;;16.60;;
635;SDS011;302;50.206;8.196;2024-01-11T02:08:06;30.77;;;22.83;;
635;SDS011;302;50.206;8.196;2024-01-11T02:10:33;33.63;;;23.70;;
635;SDS011;302;50.206;8.196;2024-01-11T02:12:59;35.07;;;24.23;;
635;SDS011;302;50.206;8.196;2024-01-11T02:15:24;32.47;;;23.50;;
635;SDS011;302;50.206;8.196;2024-01-11T02:17:49;34.57;;;24.23;;
635;SDS011;302;50.206;8.196;2024-01-11T02:20:15;35.10;;;25.30;;
635;SDS011;302;50.206;8.196;2024-01-11T02:22:40;38.13;;;24.30;;
635;SDS011;302;50.206;8.196;2024-01-11T02:25:07;36.25;;;24.95;;
635;SDS011;302;50.206;8.196;2024-01-11T02:27:44;34.03;;;24.63;;
635;SDS011;302;50.206;8.196;2024-01-11T02:30:09;36.13;;;25.02;;
635;SDS011;302;50.206;8.196;2024-01-11T02:32:34;35.73;;;23.70;;
635;SDS011;302;50.206;8.196;2024-01-11T02:34:59;34.27;;;24.67;;
635;SDS011;302;50.206;8.196;2024-01-11T02:37:25;38.70;;;25.50;;
635;SDS011;302;50.206;8.196;2024-01-11T02:39:50;34.17;;;24.70;;
635;SDS011;302;50.206;8.196;2024-01-11T02:42:15;32.70;;;22.77;;
635;SDS011;302;50.206;8.196;2024-01-11T02:44:40;27.67;;;17.10;;
635;SDS011;302;50.206;8.196;2024-01-11T02:47:05;29.97;;;23.10;;
635;SDS011;302;50.206;8.196;2024-01-11T02:49:31;32.78;;;16.70;;
635;SDS011;302;50.206;8.196;2024-01-11T02:51:56;29.70;;;16.00;;
635;SDS011;302;50.206;8.196;2024-01-11T02:54:21;34.47;;;23.20;;
635;SDS011;302;50.206;8.196;2024-01-11T02:56:46;32.37;;;23.40;;
635;SDS011;302;50.206;8.196;2024-01-11T02:59:11;33.13;;;23.37;;
635;SDS011;302;50.206;8.196;2024-01-11T03:01:36;36.60;;;24.77;;
635;SDS011;302;50.206;8.196;2024-01-11T03:04:02;33.50;;;24.00;;
635;SDS011;302;50.206;8.196;2024-01-11T03:06:27;32.87;;;23.40;;
635;SDS011;302;50.206;8.196;2024-01-11T03:08:52;31.33;;;17.35;;
635;SDS011;302;50.206;8.196;2024-01-11T03:11:17;35.60;;;23.63;;
635;SDS011;302;50.206;8.196;2024-01-11T03:13:42;25.40;;;15.70;;
635;SDS011;302;50.206;8.196;2024-01-11T03:16:08;29.37;;;15.93;;
635;SDS011;302;50.206;8.196;2024-01-11T03:18:33;37.50;;;24.47;;
635;SDS011;302;50.206;8.196;2024-01-11T03:20:58;32.13;;;22.23;;
635;SDS011;302;50.206;8.196;2024-01-11T03:23:23;38.73;;;27.27;;
635;SDS011;302;50.206;8.196;2024-01-11T03:25:48;32.72;;;23.40;;
635;SDS011;302;50.206;8.196;2024-01-11T03:28:13;26.13;;;15.80;;
635;SDS011;302;50.206;8.196;2024-01-11T03:30:39;33.47;;;23.70;;
635;SDS011;302;50.206;8.196;2024-01-11T03:33:04;33.08;;;23.33;;
635;SDS011;302;50.206;8.196;2024-01-11T03:35:29;33.30;;;22.93;;
635;SDS011;302;50.206;8.196;2024-01-11T03:37:54;33.57;;;24.37;;
635;SDS011;302;50.206;8.196;2024-01-11T03:40:19;35.00;;;24.30;;
635;SDS011;302;50.206;8.196;2024-01-11T03:42:45;33.80;;;25.13;;
635;SDS011;302;50.206;8.196;2024-01-11T03:45:10;35.40;;;24.42;;
635;SDS011;302;50.206;8.196;2024-01-11T03:47:35;32.80;;;23.60;;
635;SDS011;302;50.206;8.196;2024-01-11T03:50:00;36.77;;;25.00;;
635;SDS011;302;50.206;8.196;2024-01-11T03:52:25;35.08;;;25.27;;
635;SDS011;302;50.206;8.196;2024-01-11T03:54:50;38.92;;;26.05;;
635;SDS011;302;50.206;8.196;2024-01-11T03:57:16;33.60;;;16.90;;
635;SDS011;302;50.206;8.196;2024-01-11T03:59:42;40.38;;;19.45;;
635;SDS011;302;50.206;8.196;2024-01-11T04:02:07;30.33;;;17.70;;
635;SDS011;302;50.206;8.196;2024-01-11T04:04:32;37.90;;;25.90;;
635;SDS011;302;50.206;8.196;2024-01-11T04:06:58;38.57;;;27.33;;
635;SDS011;302;50.206;8.196;2024-01-11T04:09:23;36.50;;;25.80;;
635;SDS011;302;50.206;8.196;2024-01-11T04:11:48;37.77;;;26.63;;
635;SDS011;302;50.206;8.196;2024-01-11T04:14:13;39.87;;;28.07;;
635;SDS011;302;50.206;8.196;2024-01-11T04:16:41;32.30;;;25.27;;
635;SDS011;302;50.206;8.196;2024-01-11T04:19:07;33.63;;;16.27;;
635;SDS011;302;50.206;8.196;2024-01-11T04:21:32;29.73;;;16.20;;
635;SDS011;302;50.206;8.196;2024-01-11T04:23:57;32.20;;;23.90;;
635;SDS011;302;50.206;8.196;2024-01-11T04:26:22;36.30;;;26.10;;
635;SDS011;302;50.206;8.196;2024-01-11T04:28:48;35.17;;;25.10;;
635;SDS011;302;50.206;8.196;2024-01-11T04:31:14;33.90;;;24.60;;
635;SDS011;302;50.206;8.196;2024-01-11T04:33:39;38.37;;;27.13;;
635;SDS011;302;50.206;8.196;2024-01-11T04:36:05;40.10;;;16.53;;
635;SDS011;302;50.206;8.196;2024-01-11T04:38:31;29.35;;;16.30;;
635;SDS011;302;50.206;8.196;2024-01-11T04:40:56;35.20;;;25.93;;
635;SDS011;302;50.206;8.196;2024-01-11T04:43:21;36.67;;;27.47;;
635;SDS011;302;50.206;8.196;2024-01-11T04:45:46;33.58;;;26.20;;
635;SDS011;302;50.206;8.196;2024-01-11T04:48:11;40.80;;;27.03;;
635;SDS011;302;50.206;8.196;2024-01-11T04:50:36;32.20;;;19.83;;
635;SDS011;302;50.206;8.196;2024-01-11T04:53:02;36.30;;;26.50;;
635;SDS011;302;50.206;8.196;2024-01-11T04:55:27;36.63;;;26.80;;
635;SDS011;302;50.206;8.196;2024-01-11T04:57:52;41.25;;;27.58;;
635;SDS011;302;50.206;8.196;2024-01-11T05:00:17;38.63;;;25.70;;
635;SDS011;302;50.206;8.196;2024-01-11T05:02:42;35.27;;;25.37;;
635;SDS011;302;50.206;8.196;2024-01-11T05:05:08;34.80;;;19.25;;
635;SDS011;302;50.206;8.196;2024-01-11T05:07:33;31.03;;;17.57;;
635;SDS011;302;50.206;8.196;2024-01-11T05:09:59;33.92;;;17.20;;
635;SDS011;302;50.206;8.196;2024-01-11T05:12:24;34.60;;;25.23;;
635;SDS011;302;50.206;8.196;2024-01-11T05:14:49;35.78;;;24.10;;
635;SDS011;302;50.206;8.196;2024-01-11T05:17:15;29.52;;;15.25;;
635;SDS011;302;50.206;8.196;2024-01-11T05:19:40;33.75;;;25.77;;
635;SDS011;302;50.206;8.196;2024-01-11T05:22:05;37.07;;;26.30;;
635;SDS011;302;50.206;8.196;2024-01-11T05:24:30;36.67;;;26.40;;
635;SDS011;302;50.206;8.196;2024-01-11T05:26:55;28.83;;;17.37;;
635;SDS011;302;50.206;8.196;2024-01-11T05:29:20;30.67;;;16.90;;
635;SDS011;302;50.206;8.196;2024-01-11T05:31:46;31.30;;;16.00;;
635;SDS011;302;50.206;8.196;2024-01-11T05:34:11;31.50;;;15.17;;
635;SDS011;302;50.206;8.196;2024-01-11T05:36:37;39.13;;;27.50;;
635;SDS011;302;50.206;8.196;2024-01-11T05:39:03;37.77;;;27.50;;
635;SDS011;302;50.206;8.196;2024-01-11T05:41:28;32.00;;;18.67;;
635;SDS011;302;50.206;8.196;2024-01-11T05:43:53;31.10;;;16.97;;
635;SDS011;302;50.206;8.196;2024-01-11T05:46:19;34.45;;;14.75;;
635;SDS011;302;50.206;8.196;2024-01-11T05:48:44;33.88;;;19.75;;
635;SDS011;302;50.206;8.196;2024-01-11T05:51:09;34.57;;;17.73;;
635;SDS011;302;50.206;8.196;2024-01-11T05:53:35;30.67;;;16.70;;
635;SDS011;302;50.206;8.196;2024-01-11T05:56:00;39.80;;;18.47;;
635;SDS011;302;50.206;8.196;2024-01-11T05:58:25;30.83;;;16.67;;
635;SDS011;302;50.206;8.196;2024-01-11T06:00:51;27.67;;;14.77;;
635;SDS011;302;50.206;8.196;2024-01-11T06:03:16;28.63;;;13.90;;
635;SDS011;302;50.206;8.196;2024-01-11T06:05:41;33.20;;;15.23;;
635;SDS011;302;50.206;8.196;2024-01-11T06:08:06;35.90;;;26.53;;
635;SDS011;302;50.206;8.196;2024-01-11T06:10:31;37.43;;;21.70;;
635;SDS011;302;50.206;8.196;2024-01-11T06:12:57;30.17;;;14.97;;
635;SDS011;302;50.206;8.196;2024-01-11T06:15:22;36.00;;;18.03;;
635;SDS011;302;50.206;8.196;2024-01-11T06:17:47;40.07;;;28.53;;
635;SDS011;302;50.206;8.196;2024-01-11T06:20:12;42.50;;;27.93;;
635;SDS011;302;50.206;8.196;2024-01-11T06:22:37;35.13;;;17.43;;
635;SDS011;302;50.206;8.196;2024-01-11T06:25:03;27.43;;;14.83;;
635;SDS011;302;50.206;8.196;2024-01-11T06:27:29;25.00;;;14.63;;
635;SDS011;302;50.206;8.196;2024-01-11T06:29:54;31.93;;;14.87;;
635;SDS011;302;50.206;8.196;2024-01-11T06:32:19;30.57;;;14.80;;
635;SDS011;302;50.206;8.196;2024-01-11T06:34:44;41.57;;;29.00;;
635;SDS011;302;50.206;8.196;2024-01-11T06:37:11;27.38;;;15.20;;
635;SDS011;302;50.206;8.196;2024-01-11T06:39:36;28.87;;;15.63;;
635;SDS011;302;50.206;8.196;2024-01-11T06:42:01;30.40;;;13.90;;
635;SDS011;302;50.206;8.196;2024-01-11T06:44:26;25.60;;;13.13;;
635;SDS011;302;50.206;8.196;2024-01-11T06:46:51;25.43;;;13.93;;
635;SDS011;302;50.206;8.196;2024-01-11T06:49:17;29.53;;;14.30;;
635;SDS011;302;50.206;8.196;2024-01-11T06:51:42;24.73;;;14.37;;
635;SDS011;302;50.206;8.196;2024-01-11T06:54:07;37.13;;;26.50;;
635;SDS011;302;50.206;8.196;2024-01-11T06:56:32;43.37;;;28.57;;
635;SDS011;302;50.206;8.196;2024-01-11T06:58:57;37.23;;;27.40;;
635;SDS011;302;50.206;8.196;2024-01-11T07:01:22;31.13;;;16.40;;
635;SDS011;302;50.206;8.196;2024-01-11T07:03:48;26.23;;;14.80;;
635;SDS011;302;50.206;8.196;2024-01-11T07:06:14;33.45;;;14.82;;
635;SDS011;302;50.206;8.196;2024-01-11T07:08:40;29.47;;;16.20;;
635;SDS011;302;50.206;8.196;2024-01-11T07:11:05;37.78;;;26.05;;
635;SDS011;302;50.206;8.196;2024-01-11T07:13:30;31.40;;;16.17;;
635;SDS011;302;50.206;8.196;2024-01-11T07:15:56;31.50;;;16.37;;
635;SDS011;302;50.206;8.196;2024-01-11T07:18:22;31.23;;;15.40;;
635;SDS011;302;50.206;8.196;2024-01-11T07:20:48;27.00;;;15.20;;
635;SDS011;302;50.206;8.196;2024-01-11T07:23:13;32.40;;;14.70;;
635;SDS011;302;50.206;8.196;2024-01-11T07:25:38;31.47;;;15.33;;
635;SDS011;302;50.206;8.196;2024-01-11T07:28:04;31.83;;;15.90;;
635;SDS011;302;50.206;8.196;2024-01-11T07:30:29;35.73;;;16.20;;
635;SDS011;302;50.206;8.196;2024-01-11T07:32:54;24.80;;;14.57;;
635;SDS011;302;50.206;8.196;2024-01-11T07:35:20;39.17;;;27.60;;
635;SDS011;302;50.206;8.196;2024-01-11T07:37:45;43.77;;;27.37;;
635;SDS011;302;50.206;8.196;2024-01-11T07:40:10;31.83;;;17.53;;
635;SDS011;302;50.206;8.196;2024-01-11T07:42:38;28.97;;;14.90;;
635;SDS011;302;50.206;8.196;2024-01-11T07:45:04;26.90;;;13.35;;
635;SDS011;302;50.206;8.196;2024-01-11T07:47:30;27.10;;;14.38;;
635;SDS011;302;50.206;8.196;2024-01-11T07:49:55;25.60;;;14.30;;
635;SDS011;302;50.206;8.196;2024-01-11T07:52:20;32.60;;;16.53;;
635;SDS011;302;50.206;8.196;2024-01-11T07:54:46;29.47;;;14.70;;
635;SDS011;302;50.206;8.196;2024-01-11T07:57:11;28.85;;;13.82;;
635;SDS011;302;50.206;8.196;2024-01-11T07:59:36;35.23;;;14.80;;
635;SDS011;302;50.206;8.196;2024-01-11T08:02:01;33.30;;;16.45;;
635;SDS011;302;50.206;8.196;2024-01-11T08:04:27;18.93;;;13.57;;
635;SDS011;302;50.206;8.196;2024-01-11T08:06:52;41.67;;;27.27;;
635;SDS011;302;50.206;8.196;2024-01-11T08:09:17;37.60;;;26.47;;
635;SDS011;302;50.206;8.196;2024-01-11T08:11:43;39.57;;;27.43;;
635;SDS011;302;50.206;8.196;2024-01-11T08:14:08;40.53;;;27.20;;
635;SDS011;302;50.206;8.196;2024-01-11T08:16:33;30.47;;;17.97;;
635;SDS011;302;50.206;8.196;2024-01-11T08:18:58;33.33;;;16.43;;
635;SDS011;302;50.206;8.196;2024-01-11T08:21:23;29.60;;;14.60;;
635;SDS011;302;50.206;8.196;2024-01-11T08:23:49;30.83;;;17.00;;
635;SDS011;302;50.206;8.196;2024-01-11T08:26:14;40.97;;;27.90;;
635;SDS011;302;50.206;8.196;2024-01-11T08:28:40;37.80;;;27.23;;
635;SDS011;302;50.206;8.196;2024-01-11T08:31:05;39.37;;;27.87;;
635;SDS011;302;50.206;8.196;2024-01-11T08:33:31;43.30;;;29.95;;
635;SDS011;302;50.206;8.196;2024-01-11T08:35:56;38.40;;;28.58;;
635;SDS011;302;50.206;8.196;2024-01-11T08:38:21;33.33;;;17.83;;
635;SDS011;302;50.206;8.196;2024-01-11T08:40:46;32.10;;;16.03;;
635;SDS011;302;50.206;8.196;2024-01-11T08:43:12;34.23;;;17.40;;
635;SDS011;302;50.206;8.196;2024-01-11T08:45:37;29.63;;;17.23;;
635;SDS011;302;50.206;8.196;2024-01-11T08:48:02;32.07;;;18.30;;
635;SDS011;302;50.206;8.196;2024-01-11T08:50:27;40.93;;;27.97;;
635;SDS011;302;50.206;8.196;2024-01-11T08:52:52;47.07;;;29.97;;
635;SDS011;302;50.206;8.196;2024-01-11T08:55:20;38.88;;;27.05;;
635;SDS011;302;50.206;8.196;2024-01-11T08:57:45;42.07;;;28.60;;
635;SDS011;302;50.206;8.196;2024-01-11T09:00:10;33.77;;;16.83;;
635;SDS011;302;50.206;8.196;2024-01-11T09:02:36;27.87;;;17.83;;
635;SDS011;302;50.206;8.196;2024-01-11T09:05:01;34.97;;;19.02;;
635;SDS011;302;50.206;8.196;2024-01-11T09:07:27;33.63;;;17.70;;
635;SDS011;302;50.206;8.196;2024-01-11T09:09:52;35.90;;;18.57;;
635;SDS011;302;50.206;8.196;2024-01-11T09:12:19;33.20;;;17.77;;
635;SDS011;302;50.206;8.196;2024-01-11T09:14:45;44.78;;;28.88;;
635;SDS011;302;50.206;8.196;2024-01-11T09:17:10;37.08;;;20.48;;
635;SDS011;302;50.206;8.196;2024-01-11T09:19:36;36.00;;;18.20;;
635;SDS011;302;50.206;8.196;2024-01-11T09:22:04;30.45;;;17.48;;
635;SDS011;302;50.206;8.196;2024-01-11T09:24:30;35.27;;;20.20;;
635;SDS011;302;50.206;8.196;2024-01-11T09:26:55;37.20;;;20.83;;
635;SDS011;302;50.206;8.196;2024-01-11T09:29:20;40.17;;;19.47;;
635;SDS011;302;50.206;8.196;2024-01-11T09:31:45;32.15;;;22.25;;
635;SDS011;302;50.206;8.196;2024-01-11T09:34:10;40.80;;;22.33;;
635;SDS011;302;50.206;8.196;2024-01-11T09:36:36;43.37;;;30.10;;
635;SDS011;302;50.206;8.196;2024-01-11T09:39:03;44.88;;;29.85;;
635;SDS011;302;50.206;8.196;2024-01-11T09:41:30;37.03;;;22.73;;
635;SDS011;302;50.206;8.196;2024-01-11T09:43:56;46.45;;;23.77;;
635;SDS011;302;50.206;8.196;2024-01-11T09:46:25;48.70;;;26.00;;
635;SDS011;302;50.206;8.196;2024-01-11T09:48:50;42.43;;;24.33;;
635;SDS011;302;50.206;8.196;2024-01-11T09:51:17;45.45;;;23.70;;
635;SDS011;302;50.206;8.196;2024-01-11T09:53:42;39.60;;;22.10;;
635;SDS011;302;50.206;8.196;2024-01-11T09:56:08;41.30;;;30.57;;
635;SDS011;302;50.206;8.196;2024-01-11T09:58:34;37.38;;;23.92;;
635;SDS011;302;50.206;8.196;2024-01-11T10:01:01;42.65;;;22.95;;
635;SDS011;302;50.206;8.196;2024-01-11T10:03:27;36.50;;;23.43;;
635;SDS011;302;50.206;8.196;2024-01-11T10:05:54;42.30;;;23.97;;
635;SDS011;302;50.206;8.196;2024-01-11T10:08:21;37.60;;;23.23;;
635;SDS011;302;50.206;8.196;2024-01-11T10:10:46;45.33;;;24.83;;
635;SDS011;302;50.206;8.196;2024-01-11T10:13:12;42.90;;;30.63;;
635;SDS011;302;50.206;8.196;2024-01-11T10:15:37;47.77;;;25.33;;
635;SDS011;302;50.206;8.196;2024-01-11T10:18:02;42.80;;;30.80;;
635;SDS011;302;50.206;8.196;2024-01-11T10:20:27;45.00;;;25.07;;
635;SDS011;302;50.206;8.196;2024-01-11T10:22:55;41.50;;;29.88;;
635;SDS011;302;50.206;8.196;2024-01-11T10:25:21;44.67;;;31.52;;
635;SDS011;302;50.206;8.196;2024-01-11T10:27:47;42.63;;;32.10;;
635;SDS011;302;50.206;8.196;2024-01-11T10:30:13;45.30;;;32.40;;
635;SDS011;302;50.206;8.196;2024-01-11T10:32:40;48.95;;;32.42;;
635;SDS011;302;50.206;8.196;2024-01-11T10:35:06;37.17;;;24.27;;
635;SDS011;302;50.206;8.196;2024-01-11T10:37:31;42.30;;;29.50;;
635;SDS011;302;50.206;8.196;2024-01-11T10:40:02;41.45;;;30.05;;
635;SDS011;302;50.206;8.196;2024-01-11T10:42:28;40.42;;;29.25;;
635;SDS011;302;50.206;8.196;2024-01-11T10:44:56;40.45;;;24.70;;
635;SDS011;302;50.206;8.196;2024-01-11T10:47:23;38.30;;;27.92;;
635;SDS011;302;50.206;8.196;2024-01-11T10:49:49;39.92;;;28.67;;
635;SDS011;302;50.206;8.196;2024-01-11T10:52:15;39.60;;;29.60;;
635;SDS011;302;50.206;8.196;2024-01-11T10:54:42;40.58;;;28.27;;
635;SDS011;302;50.206;8.196;2024-01-11T10:57:07;38.60;;;28.67;;
635;SDS011;302;50.206;8.196;2024-01-11T10:59:34;36.97;;;29.10;;
635;SDS011;302;50.206;8.196;2024-01-11T11:02:04;41.58;;;29.05;;
635;SDS011;302;50.206;8.196;2024-01-11T11:04:31;37.17;;;29.35;;
635;SDS011;302;50.206;8.196;2024-01-11T11:06:57;40.75;;;29.63;;
635;SDS011;302;50.206;8.196;2024-01-11T11:09:25;37.78;;;29.23;;
635;SDS011;302;50.206;8.196;2024-01-11T11:11:50;44.90;;;31.27;;
635;SDS011;302;50.206;8.196;2024-01-11T11:14:18;39.78;;;30.83;;
635;SDS011;302;50.206;8.196;2024-01-11T11:16:44;43.22;;;29.15;;
635;SDS011;302;50.206;8.196;2024-01-11T11:19:10;50.57;;;37.20;;
635;SDS011;302;50.206;8.196;2024-01-11T11:21:47;40.72;;;29.88;;
635;SDS011;302;50.206;8.196;2024-01-11T11:24:12;39.28;;;29.50;;
635;SDS011;302;50.206;8.196;2024-01-11T11:26:38;37.37;;;27.90;;
635;SDS011;302;50.206;8.196;2024-01-11T11:29:03;38.63;;;27.60;;
635;SDS011;302;50.206;8.196;2024-01-11T11:31:34;38.07;;;27.37;;
635;SDS011;302;50.206;8.196;2024-01-11T11:33:59;39.20;;;27.75;;
635;SDS011;302;50.206;8.196;2024-01-11T11:36:28;37.90;;;27.80;;
635;SDS011;302;50.206;8.196;2024-01-11T11:38:54;34.33;;;24.43;;
635;SDS011;302;50.206;8.196;2024-01-11T11:41:25;33.95;;;24.05;;
635;SDS011;302;50.206;8.196;2024-01-11T11:43:51;33.37;;;24.00;;
635;SDS011;302;50.206;8.196;2024-01-11T11:46:16;33.00;;;22.90;;
635;SDS011;302;50.206;8.196;2024-01-11T11:51:07;29.67;;;23.37;;
635;SDS011;302;50.206;8.196;2024-01-11T11:53:41;31.10;;;22.60;;
635;SDS011;302;50.206;8.196;2024-01-11T11:56:07;29.73;;;23.17;;
635;SDS011;302;50.206;8.196;2024-01-11T11:58:34;28.92;;;20.40;;
635;SDS011;302;50.206;8.196;2024-01-11T12:01:00;29.60;;;21.60;;
635;SDS011;302;50.206;8.196;2024-01-11T12:03:29;24.83;;;18.27;;
635;SDS011;302;50.206;8.196;2024-01-11T12:05:58;24.98;;;19.05;;
635;SDS011;302;50.206;8.196;2024-01-11T12:08:23;22.50;;;18.00;;
635;SDS011;302;50.206;8.196;2024-01-11T12:10:48;24.37;;;16.80;;
635;SDS011;302;50.206;8.196;2024-01-11T12:13:14;21.67;;;16.60;;
635;SDS011;302;50.206;8.196;2024-01-11T12:15:39;24.50;;;17.90;;
635;SDS011;302;50.206;8.196;2024-01-11T12:18:05;20.47;;;15.97;;
635;SDS011;302;50.206;8.196;2024-01-11T12:20:32;18.52;;;14.60;;
635;SDS011;302;50.206;8.196;2024-01-11T12:22:57;17.97;;;14.80;;
635;SDS011;302;50.206;8.196;2024-01-11T12:25:23;22.65;;;17.00;;
635;SDS011;302;50.206;8.196;2024-01-11T12:27:48;21.07;;;14.80;;
635;SDS011;302;50.206;8.196;2024-01-11T12:30:13;17.67;;;14.37;;
635;SDS011;302;50.206;8.196;2024-01-11T12:32:42;20.00;;;16.08;;
635;SDS011;302;50.206;8.196;2024-01-11T12:35:07;19.47;;;14.50;;
635;SDS011;302;50.206;8.196;2024-01-11T12:37:32;21.20;;;16.40;;
635;SDS011;302;50.206;8.196;2024-01-11T12:39:58;20.77;;;15.32;;
635;SDS011;302;50.206;8.196;2024-01-11T12:42:23;20.25;;;15.38;;
635;SDS011;302;50.206;8.196;2024-01-11T12:44:49;18.47;;;14.50;;
635;SDS011;302;50.206;8.196;2024-01-11T12:47:15;19.40;;;13.80;;
635;SDS011;302;50.206;8.196;2024-01-11T12:49:43;18.00;;;13.70;;
635;SDS011;302;50.206;8.196;2024-01-11T12:52:14;19.60;;;13.93;;
635;SDS011;302;50.206;8.196;2024-01-11T12:54:39;17.23;;;13.30;;
635;SDS011;302;50.206;8.196;2024-01-11T12:57:05;18.70;;;14.47;;
635;SDS011;302;50.206;8.196;2024-01-11T12:59:30;15.40;;;12.20;;
635;SDS011;302;50.206;8.196;2024-01-11T13:01:55;15.00;;;11.57;;
635;SDS011;302;50.206;8.196;2024-01-11T13:04:21;16.45;;;12.70;;
635;SDS011;302;50.206;8.196;2024-01-11T13:06:47;16.77;;;12.53;;
635;SDS011;302;50.206;8.196;2024-01-11T13:09:12;20.10;;;12.90;;
635;SDS011;302;50.206;8.196;2024-01-11T13:11:39;17.67;;;12.20;;
635;SDS011;302;50.206;8.196;2024-01-11T13:14:04;15.95;;;11.90;;
635;SDS011;302;50.206;8.196;2024-01-11T13:16:32;14.90;;;12.35;;
635;SDS011;302;50.206;8.196;2024-01-11T13:18:57;15.60;;;12.63;;
635;SDS011;302;50.206;8.196;2024-01-11T13:21:23;17.10;;;12.47;;
635;SDS011;302;50.206;8.196;2024-01-11T13:23:48;18.90;;;12.97;;
635;SDS011;302;50.206;8.196;2024-01-11T13:26:13;14.80;;;12.30;;
635;SDS011;302;50.206;8.196;2024-01-11T13:28:38;15.60;;;12.73;;
635;SDS011;302;50.206;8.196;2024-01-11T13:31:03;15.93;;;12.30;;
635;SDS011;302;50.206;8.196;2024-01-11T13:33:28;13.87;;;11.93;;
635;SDS011;302;50.206;8.196;2024-01-11T13:35:54;16.43;;;12.93;;
635;SDS011;302;50.206;8.196;2024-01-11T13:38:19;16.90;;;12.90;;
635;SDS011;302;50.206;8.196;2024-01-11T13:40:44;14.03;;;11.73;;
635;SDS011;302;50.206;8.196;2024-01-11T13:43:09;15.30;;;12.70;;
635;SDS011;302;50.206;8.196;2024-01-11T13:45:35;15.97;;;12.43;;
635;SDS011;302;50.206;8.196;2024-01-11T13:48:03;17.13;;;12.88;;
635;SDS011;302;50.206;8.196;2024-01-11T13:50:29;16.53;;;13.03;;
635;SDS011;302;50.206;8.196;2024-01-11T13:52:54;16.63;;;12.43;;
635;SDS011;302;50.206;8.196;2024-01-11T13:55:19;14.93;;;11.70;;
635;SDS011;302;50.206;8.196;2024-01-11T13:57:48;14.25;;;11.45;;
635;SDS011;302;50.206;8.196;2024-01-11T14:00:14;14.88;;;12.27;;
635;SDS011;302;50.206;8.196;2024-01-11T14:02:39;15.67;;;12.90;;
635;SDS011;302;50.206;8.196;2024-01-11T14:05:05;14.80;;;12.43;;
635;SDS011;302;50.206;8.196;2024-01-11T14:07:32;16.73;;;13.90;;
635;SDS011;302;50.206;8.196;2024-01-11T14:09:57;15.38;;;12.45;;
635;SDS011;302;50.206;8.196;2024-01-11T14:12:22;15.47;;;12.90;;
635;SDS011;302;50.206;8.196;2024-01-11T14:14:48;15.05;;;12.52;;
635;SDS011;302;50.206;8.196;2024-01-11T14:17:13;13.90;;;12.23;;
635;SDS011;302;50.206;8.196;2024-01-11T14:19:38;19.00;;;13.17;;
635;SDS011;302;50.206;8.196;2024-01-11T14:22:03;15.17;;;12.30;;
635;SDS011;302;50.206;8.196;2024-01-11T14:24:28;15.07;;;13.03;;
635;SDS011;302;50.206;8.196;2024-01-11T14:26:54;16.10;;;12.07;;
635;SDS011;302;50.206;8.196;2024-01-11T14:29:19;15.80;;;12.10;;
635;SDS011;302;50.206;8.196;2024-01-11T14:31:44;14.27;;;10.75;;
635;SDS011;302;50.206;8.196;2024-01-11T14:34:10;13.05;;;10.93;;
635;SDS011;302;50.206;8.196;2024-01-11T14:36:35;16.60;;;12.77;;
635;SDS011;302;50.206;8.196;2024-01-11T14:39:00;17.33;;;14.40;;
635;SDS011;302;50.206;8.196;2024-01-11T14:41:28;20.77;;;15.23;;
635;SDS011;302;50.206;8.196;2024-01-11T14:43:54;19.58;;;15.93;;
635;SDS011;302;50.206;8.196;2024-01-11T14:46:19;22.27;;;18.33;;
635;SDS011;302;50.206;8.196;2024-01-11T14:48:44;26.87;;;20.43;;
635;SDS011;302;50.206;8.196;2024-01-11T14:51:10;33.70;;;28.23;;
635;SDS011;302;50.206;8.196;2024-01-11T14:53:35;32.15;;;24.55;;
635;SDS011;302;50.206;8.196;2024-01-11T14:56:00;29.83;;;21.37;;
635;SDS011;302;50.206;8.196;2024-01-11T14:58:26;25.90;;;20.63;;
635;SDS011;302;50.206;8.196;2024-01-11T15:00:51;30.80;;;22.33;;
635;SDS011;302;50.206;8.196;2024-01-11T15:03:16;24.20;;;19.03;;
635;SDS011;302;50.206;8.196;2024-01-11T15:05:43;21.48;;;17.48;;
635;SDS011;302;50.206;8.196;2024-01-11T15:08:08;22.80;;;19.17;;